createdAt,value
2022-11-28T00:01:41.468Z,82.04
2022-11-28T00:04:10.594Z,81.75
2022-11-28T00:06:41.092Z,82.17
2022-11-28T00:09:10.063Z,81.69
2022-11-28T00:11:40.686Z,82.12
2022-11-28T00:14:09.497Z,82.02
2022-11-28T00:16:39.193Z,82.20
2022-11-28T00:19:08.435Z,82.11
2022-11-28T00:21:37.020Z,82.03
2022-11-28T00:24:06.008Z,81.97
2022-11-28T00:26:36.875Z,82.05
2022-11-28T00:29:07.711Z,82.11
2022-11-28T00:31:42.812Z,82.04
2022-11-28T00:34:12.147Z,81.86
2022-11-28T00:36:40.873Z,82.14
2022-11-28T00:39:09.933Z,82.45
2022-11-28T00:41:38.393Z,82.06
2022-11-28T00:44:07.184Z,82.39
2022-11-28T00:46:35.553Z,82.11
2022-11-28T00:49:05.425Z,82.15
2022-11-28T00:51:34.949Z,82.27
2022-11-28T00:54:05.391Z,82.08
2022-11-28T00:56:36.214Z,81.90
2022-11-28T00:59:05.381Z,81.91
2022-11-28T01:01:35.934Z,81.66
2022-11-28T01:04:08.956Z,81.83
2022-11-28T01:06:39.055Z,81.91
2022-11-28T01:09:10.358Z,81.98
2022-11-28T01:11:40.317Z,81.77
2022-11-28T01:14:09.663Z,81.70
2022-11-28T01:16:38.212Z,81.48
2022-11-28T01:19:08.444Z,81.74
2022-11-28T01:21:37.068Z,81.91
2022-11-28T01:24:05.880Z,82.02
2022-11-28T01:26:34.680Z,81.63
2022-11-28T01:29:04.145Z,81.36
2022-11-28T01:31:32.615Z,81.42
2022-11-28T01:34:01.060Z,81.61
2022-11-28T01:36:31.397Z,81.72
2022-11-28T01:38:59.780Z,81.36
2022-11-28T01:41:29.682Z,81.41
2022-11-28T01:44:10.418Z,81.19
2022-11-28T01:46:38.841Z,81.49
2022-11-28T01:49:12.866Z,81.35
2022-11-28T01:51:47.427Z,81.68
2022-11-28T01:54:17.220Z,81.71
2022-11-28T01:56:51.319Z,81.37
2022-11-28T01:59:21.603Z,82.05
2022-11-28T02:01:49.984Z,82.05
2022-11-28T02:04:19.746Z,82.33
2022-11-28T02:06:49.462Z,82.01
2022-11-28T02:09:18.394Z,82.42
2022-11-28T02:12:11.392Z,82.16
2022-11-28T02:14:54.972Z,81.97
2022-11-28T02:17:36.363Z,82.44
2022-11-28T02:20:41.144Z,81.92
2022-11-28T02:23:17.003Z,81.79
2022-11-28T02:26:13.386Z,81.52
2022-11-28T02:29:14.319Z,81.68
2022-11-28T02:32:11.863Z,82.00
2022-11-28T02:34:49.151Z,81.71
2022-11-28T02:37:27.382Z,82.25
2022-11-28T02:40:07.018Z,82.70
2022-11-28T02:42:46.858Z,82.69
2022-11-28T02:45:21.814Z,82.83
2022-11-28T02:47:59.047Z,82.83
2022-11-28T02:50:33.598Z,82.72
2022-11-28T02:53:07.413Z,82.69
2022-11-28T02:55:40.338Z,82.24
2022-11-28T02:58:08.884Z,82.41
2022-11-28T03:00:40.342Z,82.08
2022-11-28T03:03:27.402Z,82.07
2022-11-28T03:06:01.611Z,81.79
2022-11-28T03:08:41.012Z,81.84
2022-11-28T03:11:16.977Z,81.69
2022-11-28T03:13:58.660Z,81.68
2022-11-28T03:16:30.172Z,81.92
2022-11-28T03:19:06.723Z,81.48
2022-11-28T03:21:41.766Z,81.81
2022-11-28T03:24:16.541Z,81.77
2022-11-28T03:26:54.651Z,81.82
2022-11-28T03:29:30.576Z,82.00
2022-11-28T03:32:04.443Z,82.04
2022-11-28T03:34:38.558Z,82.33
2022-11-28T03:37:11.233Z,82.05
2022-11-28T03:39:42.818Z,81.90
2022-11-28T03:42:14.273Z,81.93
2022-11-28T03:44:47.725Z,80.75
2022-11-28T03:47:16.674Z,79.89
2022-11-28T03:49:51.737Z,78.99
2022-11-28T03:52:25.479Z,78.75
2022-11-28T03:54:58.450Z,77.96
2022-11-28T03:57:34.507Z,77.82
2022-11-28T04:00:07.543Z,77.58
2022-11-28T04:02:49.945Z,77.91
2022-11-28T04:05:26.084Z,77.52
2022-11-28T04:08:00.029Z,77.63
2022-11-28T04:10:34.007Z,77.60
2022-11-28T04:13:08.601Z,78.15
2022-11-28T04:15:42.796Z,78.00
2022-11-28T04:18:20.286Z,77.75
2022-11-28T04:20:54.504Z,77.81
2022-11-28T04:23:25.807Z,77.48
2022-11-28T04:25:56.697Z,76.96
2022-11-28T04:28:29.287Z,77.07
2022-11-28T04:31:00.811Z,76.93
2022-11-28T04:33:33.207Z,76.66
2022-11-28T04:36:03.537Z,76.72
2022-11-28T04:38:34.224Z,76.86
2022-11-28T04:41:07.920Z,76.95
2022-11-28T04:43:42.264Z,77.39
2022-11-28T04:46:15.985Z,77.36
2022-11-28T04:48:44.642Z,77.51
2022-11-28T04:51:20.815Z,77.40
2022-11-28T04:53:54.305Z,77.43
2022-11-28T04:56:26.781Z,77.71
2022-11-28T04:58:55.152Z,77.87
2022-11-28T05:01:28.515Z,77.91
2022-11-28T05:03:56.970Z,77.60
2022-11-28T05:06:30.152Z,77.30
2022-11-28T05:08:59.239Z,77.34
2022-11-28T05:11:28.343Z,77.17
2022-11-28T05:13:57.493Z,77.10
2022-11-28T05:16:27.441Z,77.05
2022-11-28T05:18:55.740Z,76.54
2022-11-28T05:21:23.972Z,77.36
2022-11-28T05:23:53.698Z,77.20
2022-11-28T05:26:23.045Z,77.82
2022-11-28T05:28:53.604Z,77.66
2022-11-28T05:31:23.097Z,77.92
2022-11-28T05:33:51.756Z,78.45
2022-11-28T05:36:20.024Z,78.64
2022-11-28T05:38:48.857Z,78.97
2022-11-28T05:41:25.152Z,79.16
2022-11-28T05:43:54.094Z,79.35
2022-11-28T05:46:22.693Z,79.40
2022-11-28T05:48:52.858Z,79.18
2022-11-28T05:51:21.354Z,78.78
2022-11-28T05:53:49.608Z,78.20
2022-11-28T05:56:19.690Z,77.95
2022-11-28T05:58:49.424Z,78.21
2022-11-28T06:01:19.544Z,77.99
2022-11-28T06:03:49.709Z,77.94
2022-11-28T06:06:19.936Z,77.91
2022-11-28T06:08:51.622Z,77.92
2022-11-28T06:11:20.749Z,77.82
2022-11-28T06:13:50.743Z,77.90
2022-11-28T06:16:21.440Z,78.39
2022-11-28T06:18:53.357Z,78.31
2022-11-28T06:21:21.860Z,78.63
2022-11-28T06:23:50.572Z,78.80
2022-11-28T06:26:21.129Z,79.00
2022-11-28T06:28:51.030Z,78.98
2022-11-28T06:31:21.289Z,79.27
2022-11-28T06:33:49.806Z,79.65
2022-11-28T06:36:19.883Z,79.49
2022-11-28T06:38:49.011Z,80.76
2022-11-28T06:41:20.137Z,81.08
2022-11-28T06:43:48.338Z,80.91
2022-11-28T06:46:21.271Z,80.91
2022-11-28T06:48:50.960Z,80.64
2022-11-28T06:51:20.498Z,80.26
2022-11-28T06:53:49.033Z,79.67
2022-11-28T06:56:19.994Z,79.77
2022-11-28T06:58:49.457Z,78.25
2022-11-28T07:01:20.950Z,77.92
2022-11-28T07:03:50.095Z,77.67
2022-11-28T07:06:20.002Z,78.16
2022-11-28T07:08:48.727Z,78.10
2022-11-28T07:11:19.525Z,78.37
2022-11-28T07:13:48.364Z,79.00
2022-11-28T07:16:21.075Z,79.00
2022-11-28T07:18:49.822Z,79.08
2022-11-28T07:21:18.993Z,79.18
2022-11-28T07:23:48.154Z,79.13
2022-11-28T07:26:18.743Z,79.31
2022-11-28T07:28:48.199Z,79.14
2022-11-28T07:31:22.018Z,79.07
2022-11-28T07:33:52.254Z,79.09
2022-11-28T07:36:22.687Z,78.96
2022-11-28T07:38:52.043Z,79.17
2022-11-28T07:41:25.966Z,78.87
2022-11-28T07:43:56.788Z,79.00
2022-11-28T07:46:28.164Z,79.04
2022-11-28T07:48:56.851Z,79.18
2022-11-28T07:51:27.309Z,79.39
2022-11-28T07:53:56.394Z,79.55
2022-11-28T07:56:35.151Z,79.47
2022-11-28T07:59:13.172Z,79.89
2022-11-28T08:01:43.063Z,79.76
2022-11-28T08:04:11.678Z,80.05
2022-11-28T08:06:42.230Z,79.96
2022-11-28T08:09:12.219Z,78.42
2022-11-28T08:11:41.352Z,77.72
2022-11-28T08:14:09.745Z,77.08
2022-11-28T08:16:41.367Z,77.34
2022-11-28T08:19:11.215Z,78.56
2022-11-28T08:21:40.245Z,79.16
2022-11-28T08:24:09.175Z,79.68
2022-11-28T08:26:37.835Z,79.63
2022-11-28T08:29:06.224Z,80.02
2022-11-28T08:31:36.494Z,79.91
2022-11-28T08:34:07.427Z,79.59
2022-11-28T08:36:37.123Z,79.07
2022-11-28T08:39:24.425Z,79.38
2022-11-28T08:41:53.612Z,79.13
2022-11-28T08:44:22.142Z,79.26
2022-11-28T08:46:50.539Z,79.16
2022-11-28T08:49:19.096Z,79.27
2022-11-28T08:51:50.211Z,78.37
2022-11-28T08:54:18.424Z,77.48
2022-11-28T08:56:48.640Z,77.35
2022-11-28T08:59:17.310Z,77.01
2022-11-28T09:01:45.689Z,77.32
2022-11-28T09:04:14.102Z,77.32
2022-11-28T09:06:42.689Z,77.26
2022-11-28T09:09:14.047Z,77.28
2022-11-28T09:11:42.711Z,77.20
2022-11-28T09:14:10.988Z,77.34
2022-11-28T09:16:39.905Z,77.66
2022-11-28T09:19:09.410Z,77.59
2022-11-28T09:21:38.235Z,77.35
2022-11-28T09:24:07.442Z,75.70
2022-11-28T09:26:37.216Z,74.55
2022-11-28T09:29:05.540Z,73.69
2022-11-28T09:31:33.818Z,72.88
2022-11-28T09:34:03.611Z,73.16
2022-11-28T09:36:33.726Z,73.76
2022-11-28T09:39:02.898Z,74.93
2022-11-28T09:41:51.230Z,72.80
2022-11-28T09:44:24.990Z,68.67
2022-11-28T09:46:56.493Z,64.84
2022-11-28T09:49:38.494Z,62.64
2022-11-28T09:52:16.023Z,61.59
2022-11-28T09:54:52.499Z,60.95
2022-11-28T09:57:32.863Z,60.63
2022-11-28T10:00:01.793Z,61.21
2022-11-28T10:02:50.399Z,60.41
2022-11-28T10:05:25.940Z,60.25
2022-11-28T10:08:06.764Z,58.92
2022-11-28T10:10:48.900Z,58.29
2022-11-28T10:13:29.658Z,56.79
2022-11-28T10:16:10.770Z,56.30
2022-11-28T10:18:44.824Z,56.04
2022-11-28T10:21:26.262Z,56.02
2022-11-28T10:23:59.271Z,54.81
2022-11-28T10:26:35.873Z,55.29
2022-11-28T10:29:12.930Z,55.23
2022-11-28T10:31:45.563Z,54.60
2022-11-28T10:34:19.946Z,53.56
2022-11-28T10:36:55.616Z,55.01
2022-11-28T10:39:26.249Z,55.31
2022-11-28T10:42:14.202Z,56.21
2022-11-28T10:44:58.729Z,58.08
2022-11-28T10:47:45.395Z,59.93
2022-11-28T10:50:21.559Z,60.52
2022-11-28T10:52:57.255Z,61.06
2022-11-28T10:55:37.379Z,61.81
2022-11-28T10:58:14.036Z,62.76
2022-11-28T11:00:50.377Z,62.76
2022-11-28T11:03:20.709Z,62.49
2022-11-28T11:05:48.977Z,62.02
2022-11-28T11:08:21.940Z,63.05
2022-11-28T11:10:52.589Z,62.98
2022-11-28T11:13:24.801Z,63.52
2022-11-28T11:15:59.936Z,63.80
2022-11-28T11:18:31.397Z,64.42
2022-11-28T11:21:11.357Z,64.26
2022-11-28T11:23:39.675Z,64.06
2022-11-28T11:26:10.485Z,64.87
2022-11-28T11:28:45.123Z,64.40
2022-11-28T11:31:22.198Z,64.94
2022-11-28T11:33:54.274Z,65.61
2022-11-28T11:36:26.841Z,65.54
2022-11-28T11:39:08.333Z,64.29
2022-11-28T11:41:36.711Z,63.87
2022-11-28T11:44:30.488Z,63.80
2022-11-28T11:47:03.630Z,64.78
2022-11-28T11:49:34.050Z,65.08
2022-11-28T11:52:06.773Z,65.60
2022-11-28T11:54:35.024Z,65.68
2022-11-28T11:57:34.844Z,65.82
2022-11-28T11:59:56.893Z,64.92
2022-11-28T12:02:35.212Z,65.32
2022-11-28T12:05:10.360Z,65.29
2022-11-28T12:07:47.236Z,65.36
2022-11-28T12:10:20.499Z,65.44
2022-11-28T12:12:48.763Z,64.82
2022-11-28T12:15:22.705Z,64.20
2022-11-28T12:18:10.818Z,63.67
2022-11-28T12:20:52.734Z,63.29
2022-11-28T12:23:36.100Z,63.63
2022-11-28T12:26:11.530Z,64.28
2022-11-28T12:28:56.196Z,64.91
2022-11-28T12:31:33.908Z,64.27
2022-11-28T12:34:09.444Z,64.44
2022-11-28T12:36:45.357Z,63.85
2022-11-28T12:39:32.010Z,63.90
2022-11-28T12:42:18.180Z,63.94
2022-11-28T12:45:01.963Z,64.07
2022-11-28T12:47:41.237Z,64.02
2022-11-28T12:50:24.821Z,63.72
2022-11-28T12:52:59.994Z,64.61
2022-11-28T12:55:36.117Z,63.69
2022-11-28T12:58:12.666Z,63.96
2022-11-28T13:00:53.883Z,64.08
2022-11-28T13:03:35.523Z,64.57
2022-11-28T13:06:17.494Z,64.50
2022-11-28T13:09:02.427Z,64.88
2022-11-28T13:11:45.225Z,64.37
2022-11-28T13:14:27.288Z,64.21
2022-11-28T13:16:58.525Z,64.80
2022-11-28T13:19:35.840Z,64.87
2022-11-28T13:22:13.795Z,65.15
2022-11-28T13:24:53.412Z,64.71
2022-11-28T13:27:32.677Z,64.08
2022-11-28T13:30:16.105Z,63.88
2022-11-28T13:32:53.094Z,63.99
2022-11-28T13:35:21.839Z,63.83
2022-11-28T13:40:53.255Z,63.09
2022-11-28T13:43:28.864Z,62.94
2022-11-28T13:45:57.610Z,62.94
2022-11-28T13:49:19.876Z,62.32
2022-11-28T13:51:49.704Z,62.38
2022-11-28T13:54:45.366Z,62.33
2022-11-28T13:57:26.458Z,62.52
2022-11-28T13:59:59.751Z,63.51
2022-11-28T14:02:37.592Z,63.65
2022-11-28T14:05:23.056Z,63.12
2022-11-28T14:07:56.010Z,62.74
2022-11-28T14:10:47.699Z,62.70
2022-11-28T14:13:37.753Z,61.65
2022-11-28T14:16:19.083Z,61.86
2022-11-28T14:19:05.129Z,61.86
2022-11-28T14:21:47.279Z,61.62
2022-11-28T14:24:24.139Z,62.31
2022-11-28T14:27:00.485Z,62.88
2022-11-28T14:29:35.437Z,63.07
2022-11-28T14:34:55.511Z,64.17
2022-11-28T14:37:54.324Z,63.92
2022-11-28T14:41:05.438Z,63.90
2022-11-28T14:43:37.402Z,64.41
2022-11-28T14:46:32.750Z,64.40
2022-11-28T14:49:22.341Z,64.71
2022-11-28T14:52:38.847Z,65.31
2022-11-28T14:55:30.638Z,65.55
2022-11-28T14:58:00.733Z,66.46
2022-11-28T15:00:35.494Z,66.58
2022-11-28T15:03:17.467Z,67.46
2022-11-28T15:05:47.692Z,68.11
2022-11-28T15:08:45.568Z,68.92
2022-11-28T15:11:33.731Z,69.52
2022-11-28T15:14:10.140Z,69.71
2022-11-28T15:16:49.863Z,70.01
2022-11-28T15:19:25.949Z,70.19
2022-11-28T15:21:56.361Z,70.79
2022-11-28T15:24:28.154Z,70.97
2022-11-28T15:26:58.343Z,71.08
2022-11-28T15:29:29.169Z,71.07
2022-11-28T15:31:59.925Z,71.16
2022-11-28T15:34:31.584Z,71.48
2022-11-28T15:37:02.440Z,71.74
2022-11-28T15:39:35.105Z,71.87
2022-11-28T15:42:06.908Z,72.24
2022-11-28T15:44:37.824Z,72.60
2022-11-28T15:47:19.751Z,73.15
2022-11-28T15:49:59.260Z,73.50
2022-11-28T15:52:28.325Z,72.94
2022-11-28T15:54:56.672Z,73.05
2022-11-28T15:57:30.729Z,72.73
2022-11-28T15:59:59.244Z,72.79
2022-11-28T16:02:33.565Z,72.59
2022-11-28T16:05:08.867Z,72.54
2022-11-28T16:07:42.581Z,72.77
2022-11-28T16:10:24.485Z,73.13
2022-11-28T16:12:58.510Z,72.95
2022-11-28T16:15:28.415Z,73.15
2022-11-28T16:17:58.652Z,73.13
2022-11-28T16:20:28.818Z,73.25
2022-11-28T16:23:02.726Z,73.24
2022-11-28T16:25:32.638Z,73.21
2022-11-28T16:28:01.119Z,73.35
2022-11-28T16:30:34.737Z,73.07
2022-11-28T16:33:25.856Z,73.41
2022-11-28T16:35:54.079Z,73.82
2022-11-28T16:38:25.384Z,73.42
2022-11-28T16:41:01.363Z,73.73
2022-11-28T16:43:35.817Z,73.83
2022-11-28T16:46:07.241Z,74.09
2022-11-28T16:48:39.156Z,73.97
2022-11-28T16:51:32.777Z,74.12
2022-11-28T16:54:02.060Z,74.32
2022-11-28T16:56:44.773Z,74.12
2022-11-28T16:59:15.215Z,74.25
2022-11-28T17:01:44.822Z,74.03
2022-11-28T17:04:23.556Z,74.13
2022-11-28T17:06:52.811Z,74.10
2022-11-28T17:09:21.515Z,74.26
2022-11-28T17:11:55.742Z,74.30
2022-11-28T17:14:24.208Z,74.58
2022-11-28T17:16:52.449Z,74.65
2022-11-28T17:19:22.145Z,74.77
2022-11-28T17:21:52.913Z,74.80
2022-11-28T17:24:23.335Z,74.84
2022-11-28T17:26:53.257Z,74.96
2022-11-28T17:29:22.145Z,74.86
2022-11-28T17:31:50.570Z,75.05
2022-11-28T17:34:20.612Z,75.12
2022-11-28T17:36:51.046Z,74.87
2022-11-28T17:39:20.492Z,75.06
2022-11-28T17:41:49.707Z,75.15
2022-11-28T17:44:20.296Z,75.23
2022-11-28T17:46:49.575Z,75.45
2022-11-28T17:49:18.313Z,75.57
2022-11-28T17:51:46.704Z,75.30
2022-11-28T17:54:18.411Z,75.43
2022-11-28T17:56:49.443Z,75.46
2022-11-28T17:59:19.517Z,75.42
2022-11-28T18:01:48.111Z,75.48
2022-11-28T18:04:16.453Z,75.61
2022-11-28T18:06:45.508Z,75.77
2022-11-28T18:09:15.102Z,76.52
2022-11-28T18:11:46.419Z,76.40
2022-11-28T18:14:18.205Z,77.06
2022-11-28T18:16:48.424Z,77.32
2022-11-28T18:19:18.276Z,77.49
2022-11-28T18:21:47.235Z,78.08
2022-11-28T18:24:15.697Z,77.94
2022-11-28T18:26:45.383Z,77.74
2022-11-28T18:29:14.287Z,78.03
2022-11-28T18:31:44.299Z,78.03
2022-11-28T18:34:13.109Z,78.26
2022-11-28T18:36:42.318Z,78.55
2022-11-28T18:39:14.948Z,78.42
2022-11-28T18:41:43.428Z,78.90
2022-11-28T18:44:13.208Z,78.55
2022-11-28T18:46:41.841Z,78.74
2022-11-28T18:49:15.187Z,78.40
2022-11-28T18:51:44.239Z,78.37
2022-11-28T18:54:19.250Z,78.47
2022-11-28T18:56:49.239Z,78.21
2022-11-28T18:59:20.254Z,78.34
2022-11-28T19:01:48.854Z,78.21
2022-11-28T19:04:17.283Z,78.54
2022-11-28T19:06:46.222Z,78.40
2022-11-28T19:09:17.737Z,78.57
2022-11-28T19:11:46.317Z,78.67
2022-11-28T19:14:17.143Z,78.94
2022-11-28T19:16:49.687Z,78.88
2022-11-28T19:19:19.594Z,79.23
2022-11-28T19:21:50.188Z,79.14
2022-11-28T19:24:19.325Z,78.81
2022-11-28T19:26:47.808Z,79.33
2022-11-28T19:29:16.740Z,79.61
2022-11-28T19:31:46.657Z,79.74
2022-11-28T19:34:17.461Z,79.81
2022-11-28T19:36:49.232Z,79.94
2022-11-28T19:39:19.425Z,79.63
2022-11-28T19:41:49.043Z,79.96
2022-11-28T19:44:17.608Z,79.66
2022-11-28T19:46:47.916Z,79.64
2022-11-28T19:49:20.165Z,79.80
2022-11-28T19:51:50.400Z,79.85
2022-11-28T19:54:20.792Z,79.51
2022-11-28T19:56:50.532Z,79.73
2022-11-28T19:59:19.853Z,79.65
2022-11-28T20:01:50.099Z,79.62
2022-11-28T20:04:19.510Z,79.71
2022-11-28T20:06:47.797Z,79.46
2022-11-28T20:09:16.457Z,79.86
2022-11-28T20:11:45.798Z,79.62
2022-11-28T20:14:16.431Z,79.79
2022-11-28T20:16:45.486Z,79.89
2022-11-28T20:19:15.954Z,79.81
2022-11-28T20:21:46.416Z,80.14
2022-11-28T20:24:15.724Z,80.42
2022-11-28T20:26:45.848Z,80.33
2022-11-28T20:29:15.991Z,80.34
2022-11-28T20:31:46.338Z,79.82
2022-11-28T20:34:19.485Z,79.93
2022-11-28T20:36:53.264Z,80.20
2022-11-28T20:39:22.501Z,80.06
2022-11-28T20:41:50.698Z,80.47
2022-11-28T20:44:19.343Z,80.32
2022-11-28T20:46:49.613Z,80.49
2022-11-28T20:49:19.328Z,80.49
2022-11-28T20:51:47.854Z,80.34
2022-11-28T20:54:16.424Z,80.65
2022-11-28T20:57:19.805Z,80.36
2022-11-28T20:59:33.969Z,81.10
2022-11-28T21:02:02.531Z,81.05
2022-11-28T21:04:32.927Z,81.15
2022-11-28T21:07:01.321Z,80.71
2022-11-28T21:09:29.672Z,81.10
2022-11-28T21:11:59.171Z,80.68
2022-11-28T21:14:29.528Z,81.23
2022-11-28T21:16:59.552Z,81.13
2022-11-28T21:19:27.937Z,81.24
2022-11-28T21:21:57.535Z,81.29
2022-11-28T21:24:25.758Z,81.33
2022-11-28T21:26:54.941Z,81.15
2022-11-28T21:29:24.612Z,81.46
2022-11-28T21:31:53.373Z,80.91
2022-11-28T21:34:22.532Z,81.08
2022-11-28T21:36:51.064Z,81.53
2022-11-28T21:39:22.144Z,81.71
2022-11-28T21:41:52.164Z,81.53
2022-11-28T21:44:20.590Z,81.67
2022-11-28T21:46:50.155Z,81.67
2022-11-28T21:49:18.344Z,81.58
2022-11-28T21:51:46.553Z,81.80
2022-11-28T21:54:14.713Z,81.81
2022-11-28T21:56:47.431Z,81.53
2022-11-28T21:59:16.303Z,81.51
2022-11-28T22:01:45.580Z,81.59
2022-11-28T22:04:13.915Z,81.56
2022-11-28T22:06:43.234Z,81.35
2022-11-28T22:09:12.009Z,81.12
2022-11-28T22:11:40.580Z,81.07
2022-11-28T22:14:10.337Z,81.47
2022-11-28T22:16:39.189Z,81.25
2022-11-28T22:19:07.349Z,80.92
2022-11-28T22:21:56.545Z,81.07
2022-11-28T22:24:25.836Z,81.08
2022-11-28T22:26:56.888Z,81.09
2022-11-28T22:29:26.897Z,81.09
2022-11-28T22:31:55.456Z,81.11
2022-11-28T22:34:24.527Z,81.18
2022-11-28T22:36:53.115Z,81.13
2022-11-28T22:39:22.769Z,81.28
2022-11-28T22:41:50.930Z,81.25
2022-11-28T22:44:20.456Z,81.05
2022-11-28T22:46:50.444Z,81.13
2022-11-28T22:49:19.936Z,81.05
2022-11-28T22:51:48.883Z,81.07
2022-11-28T22:54:17.223Z,81.00
2022-11-28T22:56:45.445Z,81.08
2022-11-28T22:59:14.493Z,81.22
2022-11-28T23:01:43.757Z,81.35
2022-11-28T23:04:14.048Z,80.93
2022-11-28T23:06:43.066Z,81.12
2022-11-28T23:09:14.446Z,81.03
2022-11-28T23:11:43.171Z,81.20
2022-11-28T23:14:14.171Z,81.35
2022-11-28T23:16:45.273Z,81.01
2022-11-28T23:19:17.005Z,80.84
2022-11-28T23:21:47.350Z,81.05
2022-11-28T23:24:18.100Z,80.96
2022-11-28T23:26:48.140Z,81.26
2022-11-28T23:29:17.318Z,81.27
2022-11-28T23:31:47.178Z,81.55
2022-11-28T23:34:17.426Z,81.44
2022-11-28T23:36:48.327Z,81.48
2022-11-28T23:39:18.751Z,81.34
2022-11-28T23:41:47.633Z,81.47
2022-11-28T23:44:17.431Z,81.79
2022-11-28T23:46:46.527Z,81.67
2022-11-28T23:49:17.738Z,81.51
2022-11-28T23:51:46.609Z,81.88
2022-11-28T23:54:14.979Z,81.56
2022-11-28T23:56:44.939Z,81.80
2022-11-28T23:59:14.233Z,81.86
